Time;durP1;ratioP1;P1;durP2;ratioP2;P2;SDS_P1;SDS_P2;PMS_P1;PMS_P2;Temp;Humidity;BMP_temperature;BMP_pressure;BME280_temperature;BME280_humidity;BME280_pressure;Samples;Min_cycle;Max_cycle;Signal;HPM_P1;HPM_P2
2021/11/04 00:00:39;;;;;;;;;;;;;;;20.28;58.55;98972.31;2107711;27;20468;-63
2021/11/04 00:01:40;;;;;;;;;;;;;;;20.28;58.34;98976.97;2105287;27;20921;-63
2021/11/04 00:02:40;;;;;;;;;;;;;;;20.26;58.48;98970.81;2107313;27;19915;-63
2021/11/04 00:03:41;;;;;;;;;;;;;;;20.26;58.57;98968.06;2100819;27;19945;-63
2021/11/04 00:04:41;;;;;;;;;;;;;;;20.26;58.61;98979.03;2090615;28;19926;-63
2021/11/04 00:05:41;;;;;;;;;;;;;;;20.26;58.48;98970.81;2090201;28;19916;-63
2021/11/04 00:06:42;;;;;;;;;;;;;;;20.25;58.67;98966.38;2102173;27;19981;-63
2021/11/04 00:07:42;;;;;;;;;;;;;;;20.24;58.41;98965.53;2104954;27;19927;-63
2021/11/04 00:08:42;;;;;;;;;;;;;;;20.24;58.50;98970.19;2101205;27;20535;-63
2021/11/04 00:09:43;;;;;;;;;;;;;;;20.24;58.68;98978.38;2102281;27;19916;-63
2021/11/04 00:10:43;;;;;;;;;;;;;;;20.24;58.70;98970.19;2098848;27;19965;-62
2021/11/04 00:11:44;;;;;;;;;;;;;;;20.23;58.45;98979.41;2101827;27;20503;-63
2021/11/04 00:12:44;;;;;;;;;;;;;;;20.22;58.56;98975.81;2106566;27;19943;-63
2021/11/04 00:13:44;;;;;;;;;;;;;;;20.22;58.52;98967.59;2097914;28;19915;-63
2021/11/04 00:14:44;;;;;;;;;;;;;;;20.22;58.67;98973.09;2096336;28;19915;-62
2021/11/04 00:15:45;;;;;;;;;;;;;;;20.22;58.49;98977.72;2107984;27;19915;-63
2021/11/04 00:16:45;;;;;;;;;;;;;;;20.22;58.78;98974.97;2095573;28;20011;-62
2021/11/04 00:17:46;;;;;;;;;;;;;;;20.21;58.73;98973.25;2097612;28;19916;-63
2021/11/04 00:18:46;;;;;;;;;;;;;;;20.19;58.77;98967.97;2105746;27;20018;-63
2021/11/04 00:19:47;;;;;;;;;;;;;;;20.20;58.67;98974.31;2104092;27;19954;-61
2021/11/04 00:20:47;;;;;;;;;;;;;;;20.20;58.86;98979.78;2099269;28;19985;-63
2021/11/04 00:21:48;;;;;;;;;;;;;;;20.18;58.68;98971.75;2094033;28;19961;-62
2021/11/04 00:22:48;;;;;;;;;;;;;;;20.19;58.71;98967.16;2092825;28;19920;-62
2021/11/04 00:23:51;;;;;;;;;;;;;;;20.19;58.73;98969.88;2097668;28;19915;-62
2021/11/04 00:24:51;;;;;;;;;;;;;;;20.19;58.72;98980.81;2107410;27;20401;-62
2021/11/04 00:25:52;;;;;;;;;;;;;;;20.18;58.68;98976.38;2106016;27;20274;-62
2021/11/04 00:26:52;;;;;;;;;;;;;;;20.18;58.84;98979.09;2108506;27;20408;-62
2021/11/04 00:27:52;;;;;;;;;;;;;;;20.18;58.68;98981.84;2102655;27;20225;-62
2021/11/04 00:28:53;;;;;;;;;;;;;;;20.17;58.78;98980.16;2099976;27;20637;-62
2021/11/04 00:29:53;;;;;;;;;;;;;;;20.16;58.62;98979.28;2097026;28;19939;-62
2021/11/04 00:30:54;;;;;;;;;;;;;;;20.16;58.83;98973.81;2096481;28;19919;-62
2021/11/04 00:31:54;;;;;;;;;;;;;;;20.15;58.68;98976.75;2107552;27;19907;-62
2021/11/04 00:32:55;;;;;;;;;;;;;;;20.15;58.85;98979.47;2104149;27;20572;-62
2021/11/04 00:33:56;;;;;;;;;;;;;;;20.15;58.72;98982.22;2091983;28;20298;-62
2021/11/04 00:34:56;;;;;;;;;;;;;;;20.15;58.70;98987.69;2098674;28;19916;-62
2021/11/04 00:35:57;;;;;;;;;;;;;;;20.13;58.85;98985.97;2104799;27;20243;-62
2021/11/04 00:36:57;;;;;;;;;;;;;;;20.13;58.82;98985.97;2107021;27;19915;-63
2021/11/04 00:37:57;;;;;;;;;;;;;;;20.13;58.64;98987.84;2106490;27;19908;-63
2021/11/04 00:38:58;;;;;;;;;;;;;;;20.12;58.74;98987.00;2104210;27;20364;-63
2021/11/04 00:40:01;;;;;;;;;;;;;;;20.12;58.86;98992.47;2098944;28;19916;-62
2021/11/04 00:41:02;;;;;;;;;;;;;;;20.12;58.74;98994.38;2097082;28;19941;-63
2021/11/04 00:42:02;;;;;;;;;;;;;;;20.11;58.95;98996.28;2106324;27;20020;-64
2021/11/04 00:43:03;;;;;;;;;;;;;;;20.11;58.76;98992.66;2106815;27;19958;-61
2021/11/04 00:44:03;;;;;;;;;;;;;;;20.11;59.03;98999.00;2103329;27;19924;-62
2021/11/04 00:45:04;;;;;;;;;;;;;;;20.09;58.93;98990.13;2103457;27;19955;-62
2021/11/04 00:46:04;;;;;;;;;;;;;;;20.10;58.95;98994.53;2105046;27;20468;-62
2021/11/04 00:47:04;;;;;;;;;;;;;;;20.10;58.92;98990.97;2104653;27;19993;-62
2021/11/04 00:48:05;;;;;;;;;;;;;;;20.09;58.78;98989.28;2101075;27;19974;-62
2021/11/04 00:49:06;;;;;;;;;;;;;;;20.08;58.90;98982.09;2102203;27;19915;-62
2021/11/04 00:50:07;;;;;;;;;;;;;;;20.09;58.94;98992.00;2105371;27;19923;-62
2021/11/04 00:51:09;;;;;;;;;;;;;;;20.07;59.01;98986.72;2101012;27;19962;-63
2021/11/04 00:52:09;;;;;;;;;;;;;;;20.07;58.93;98986.72;2105550;27;20318;-62
2021/11/04 00:53:09;;;;;;;;;;;;;;;20.08;59.03;98988.41;2096831;28;20339;-62
2021/11/04 00:54:10;;;;;;;;;;;;;;;20.06;58.93;98990.50;2096782;28;19927;-62
2021/11/04 00:55:11;;;;;;;;;;;;;;;20.07;58.88;98986.72;2104760;27;20473;-62
2021/11/04 00:56:11;;;;;;;;;;;;;;;20.06;59.10;98987.75;2102527;27;20104;-64
2021/11/04 00:57:12;;;;;;;;;;;;;;;20.06;59.14;98981.41;2106127;27;19907;-64
2021/11/04 00:58:12;;;;;;;;;;;;;;;20.06;59.08;98989.63;2106051;27;19957;-64
2021/11/04 00:59:12;;;;;;;;;;;;;;;20.05;59.04;98979.72;2108258;27;20007;-64
2021/11/04 01:00:14;;;;;;;;;;;;;;;20.05;59.01;98983.31;2095373;28;19928;-64
2021/11/04 01:01:24;;;;;;;;;;;;;;;20.05;59.09;98982.47;2098436;28;19990;-64
2021/11/04 01:02:24;;;;;;;;;;;;;;;20.04;58.98;98987.09;2100380;28;20026;-64
2021/11/04 01:03:28;;;;;;;;;;;;;;;20.03;59.19;98990.84;2099637;27;19922;-64
2021/11/04 01:04:28;;;;;;;;;;;;;;;20.03;58.96;98987.25;2099674;28;20288;-64
2021/11/04 01:05:28;;;;;;;;;;;;;;;20.02;59.00;98989.16;2101318;27;19922;-64
2021/11/04 01:06:29;;;;;;;;;;;;;;;20.03;59.16;98990.00;2098553;27;21084;-64
2021/11/04 01:07:29;;;;;;;;;;;;;;;20.02;59.16;98989.16;2104455;27;20324;-64
2021/11/04 01:08:29;;;;;;;;;;;;;;;20.02;59.27;98989.16;2101087;27;20274;-64
2021/11/04 01:09:30;;;;;;;;;;;;;;;20.02;59.04;98993.78;2099905;27;20288;-64
2021/11/04 01:10:30;;;;;;;;;;;;;;;20.02;59.28;98997.34;2104962;27;20108;-63
2021/11/04 01:11:30;;;;;;;;;;;;;;;20.01;59.27;98998.38;2104013;27;20363;-64
2021/11/04 01:12:31;;;;;;;;;;;;;;;20.00;59.22;98996.69;2098634;28;19915;-64
2021/11/04 01:13:31;;;;;;;;;;;;;;;20.01;59.31;98997.53;2100183;27;19976;-63
2021/11/04 01:14:32;;;;;;;;;;;;;;;20.00;59.28;99001.31;2100884;27;19915;-64
2021/11/04 01:15:32;;;;;;;;;;;;;;;20.00;59.11;98991.22;2104284;28;19915;-64
2021/11/04 01:16:32;;;;;;;;;;;;;;;20.01;59.39;99003.00;2103596;27;19923;-63
2021/11/04 01:17:33;;;;;;;;;;;;;;;19.99;59.40;99005.94;2097767;28;20309;-63
2021/11/04 01:18:33;;;;;;;;;;;;;;;19.99;59.15;99005.06;2098329;28;20034;-63
2021/11/04 01:19:34;;;;;;;;;;;;;;;19.99;59.16;99008.66;2095662;28;20472;-62
2021/11/04 01:20:34;;;;;;;;;;;;;;;19.98;59.21;99015.16;2094589;28;20008;-62
2021/11/04 01:21:35;;;;;;;;;;;;;;;19.99;59.34;99016.00;2100528;27;20313;-62
2021/11/04 01:22:35;;;;;;;;;;;;;;;19.99;59.18;99016.00;2103941;27;20308;-62
2021/11/04 01:23:36;;;;;;;;;;;;;;;19.98;59.26;99017.91;2107590;28;19922;-62
2021/11/04 01:24:36;;;;;;;;;;;;;;;19.98;59.38;99026.09;2106269;27;19915;-63
2021/11/04 01:25:36;;;;;;;;;;;;;;;19.97;59.44;99018.94;2105132;27;19919;-63
2021/11/04 01:26:37;;;;;;;;;;;;;;;19.98;59.43;99020.63;2106459;28;19912;-63
2021/11/04 01:27:37;;;;;;;;;;;;;;;19.97;59.19;99024.41;2102018;27;19923;-63
2021/11/04 01:28:39;;;;;;;;;;;;;;;19.97;59.14;99029.88;2104526;28;19908;-63
2021/11/04 01:29:39;;;;;;;;;;;;;;;19.97;59.27;99029.88;2105781;28;19916;-63
2021/11/04 01:30:39;;;;;;;;;;;;;;;19.97;59.34;99027.16;2105818;27;20389;-64
2021/11/04 01:31:40;;;;;;;;;;;;;;;19.96;59.43;99019.94;2107772;28;20399;-63
2021/11/04 01:32:40;;;;;;;;;;;;;;;19.96;59.29;99030.88;2105214;27;19908;-63
2021/11/04 01:33:41;;;;;;;;;;;;;;;19.95;59.37;99026.47;2107377;28;20236;-63
2021/11/04 01:34:41;;;;;;;;;;;;;;;19.94;59.28;99024.75;2106070;27;19962;-61
2021/11/04 01:35:42;;;;;;;;;;;;;;;19.94;59.44;99027.47;2104879;27;19911;-62
2021/11/04 01:36:42;;;;;;;;;;;;;;;19.93;59.46;99028.53;2106910;28;20369;-62
2021/11/04 01:37:42;;;;;;;;;;;;;;;19.93;59.41;99025.78;2101301;27;20217;-62
2021/11/04 01:38:43;;;;;;;;;;;;;;;19.92;59.54;99030.41;2105925;28;19926;-62
2021/11/04 01:39:43;;;;;;;;;;;;;;;19.94;59.45;99023.91;2104618;27;19930;-63
2021/11/04 01:40:44;;;;;;;;;;;;;;;19.94;59.29;99026.63;2095761;28;19916;-62
2021/11/04 01:41:44;;;;;;;;;;;;;;;19.92;59.54;99026.84;2097253;28;20399;-62
2021/11/04 01:42:46;;;;;;;;;;;;;;;19.92;59.43;99032.31;2104466;27;20214;-62
2021/11/04 01:43:46;;;;;;;;;;;;;;;19.92;59.38;99037.78;2106053;27;19915;-62
2021/11/04 01:44:46;;;;;;;;;;;;;;;19.91;59.33;99036.06;2106495;27;20316;-62
2021/11/04 01:45:48;;;;;;;;;;;;;;;19.91;59.49;99041.53;2106863;28;20038;-62
2021/11/04 01:46:49;;;;;;;;;;;;;;;19.90;59.48;99035.22;2103824;27;20240;-62
2021/11/04 01:47:51;;;;;;;;;;;;;;;19.89;59.60;99033.53;2107271;27;19941;-62
2021/11/04 01:48:51;;;;;;;;;;;;;;;19.90;59.57;99037.09;2106528;27;20022;-63
2021/11/04 01:49:52;;;;;;;;;;;;;;;19.90;59.62;99031.63;2096759;28;20397;-62
2021/11/04 01:50:53;;;;;;;;;;;;;;;19.89;59.49;99040.84;2098316;28;19920;-65
2021/11/04 01:51:54;;;;;;;;;;;;;;;19.88;59.54;99040.00;2105911;27;20230;-65
2021/11/04 01:52:54;;;;;;;;;;;;;;;19.88;59.64;99039.16;2105770;27;19915;-65
2021/11/04 01:53:54;;;;;;;;;;;;;;;19.88;59.68;99041.91;2105865;28;20373;-65
2021/11/04 01:54:55;;;;;;;;;;;;;;;19.88;59.50;99041.91;2103205;27;20005;-65
2021/11/04 01:55:56;;;;;;;;;;;;;;;19.87;59.55;99040.22;2106627;27;20034;-65
2021/11/04 01:56:56;;;;;;;;;;;;;;;19.87;59.48;99045.69;2105351;27;19916;-65
2021/11/04 01:57:57;;;;;;;;;;;;;;;19.86;59.56;99046.69;2107610;28;19953;-65
2021/11/04 01:58:58;;;;;;;;;;;;;;;19.86;59.74;99044.81;2096651;28;19990;-66
2021/11/04 01:59:58;;;;;;;;;;;;;;;19.85;59.54;99043.09;2096337;28;19908;-65
2021/11/04 02:00:58;;;;;;;;;;;;;;;19.86;59.59;99049.44;2107536;28;19953;-65
2021/11/04 02:02:05;;;;;;;;;;;;;;;19.86;59.64;99049.44;2101757;27;19919;-65
2021/11/04 02:03:17;;;;;;;;;;;;;;;19.85;59.75;99042.25;2108055;27;20372;-65
2021/11/04 02:04:33;;;;;;;;;;;;;;;19.85;59.71;99048.59;2103436;28;19915;-59
2021/11/04 02:05:44;;;;;;;;;;;;;;;19.84;59.59;99046.00;2111802;28;19923;-59
2021/11/04 02:07:02;;;;;;;;;;;;;;;19.84;59.64;99043.28;2113601;28;19912;-59
2021/11/04 02:08:13;;;;;;;;;;;;;;;19.84;59.70;99041.41;2101186;27;20009;-62
2021/11/04 02:09:20;;;;;;;;;;;;;;;19.84;59.57;99043.28;2104176;28;19916;-62
2021/11/04 02:10:39;;;;;;;;;;;;;;;19.83;59.89;99041.59;2100309;27;19927;-62
2021/11/04 02:11:49;;;;;;;;;;;;;;;19.83;59.59;99038.84;2100683;27;19983;-62
2021/11/04 02:12:52;;;;;;;;;;;;;;;19.83;59.61;99036.97;2102889;27;20401;-63
2021/11/04 02:14:00;;;;;;;;;;;;;;;19.82;59.75;99042.59;2105274;27;19912;-62
2021/11/04 02:15:01;;;;;;;;;;;;;;;19.81;59.52;99047.22;2101680;28;20297;-62
2021/11/04 02:16:03;;;;;;;;;;;;;;;19.81;59.68;99047.22;2104297;27;19950;-62
2021/11/04 02:17:04;;;;;;;;;;;;;;;19.81;59.58;99046.38;2102840;28;19967;-63
2021/11/04 02:18:08;;;;;;;;;;;;;;;19.81;59.79;99051.84;2106421;27;19915;-62
2021/11/04 02:19:26;;;;;;;;;;;;;;;19.80;59.77;99050.16;2101743;27;19972;-62
2021/11/04 02:20:54;;;;;;;;;;;;;;;19.80;59.61;99051.00;2103507;27;19923;-62
2021/11/04 02:21:55;;;;;;;;;;;;;;;19.80;59.77;99055.63;2105218;27;20056;-62
2021/11/04 02:23:10;;;;;;;;;;;;;;;19.80;59.67;99055.63;2105488;27;19964;-62
2021/11/04 02:24:25;;;;;;;;;;;;;;;19.79;59.73;99051.19;2095991;28;19993;-62
2021/11/04 02:25:26;;;;;;;;;;;;;;;19.80;59.89;99052.91;2100630;28;19916;-63
2021/11/04 02:26:27;;;;;;;;;;;;;;;19.78;59.71;99055.78;2106132;27;19915;-62
2021/11/04 02:27:28;;;;;;;;;;;;;;;19.78;59.74;99052.22;2109486;27;19922;-62
2021/11/04 02:28:28;;;;;;;;;;;;;;;19.78;59.79;99052.22;2105996;27;19955;-62
2021/11/04 02:29:30;;;;;;;;;;;;;;;19.79;59.72;99053.91;2104599;27;20423;-62
2021/11/04 02:30:31;;;;;;;;;;;;;;;19.78;59.81;99046.75;2100205;27;19908;-62
2021/11/04 02:31:32;;;;;;;;;;;;;;;19.77;59.86;99040.44;2108660;27;19939;-62
2021/11/04 02:32:33;;;;;;;;;;;;;;;19.77;59.72;99045.91;2104596;27;19916;-62
2021/11/04 02:33:34;;;;;;;;;;;;;;;19.78;59.62;99052.22;2105474;27;19920;-62
2021/11/04 02:34:35;;;;;;;;;;;;;;;19.77;59.66;99047.75;2098965;28;19908;-62
2021/11/04 02:35:37;;;;;;;;;;;;;;;19.76;59.72;99046.91;2096356;28;19920;-62
2021/11/04 02:36:38;;;;;;;;;;;;;;;19.76;59.82;99048.81;2105390;27;19919;-62
2021/11/04 02:37:39;;;;;;;;;;;;;;;19.76;59.68;99052.38;2107492;27;20334;-61
2021/11/04 02:38:39;;;;;;;;;;;;;;;19.77;59.74;99053.22;2101663;27;19982;-62
2021/11/04 02:39:40;;;;;;;;;;;;;;;19.76;59.85;99048.81;2112716;27;19922;-58
2021/11/04 02:40:41;;;;;;;;;;;;;;;19.75;59.79;99052.59;2118411;27;20398;-59
2021/11/04 02:41:44;;;;;;;;;;;;;;;19.76;59.74;99048.81;2118469;27;19915;-59
2021/11/04 02:42:44;;;;;;;;;;;;;;;19.75;59.89;99049.84;2111676;27;20318;-59
2021/11/04 02:43:45;;;;;;;;;;;;;;;19.75;59.91;99052.59;2103133;28;19955;-59
2021/11/04 02:44:45;;;;;;;;;;;;;;;19.74;59.97;99051.72;2107562;28;19916;-59
2021/11/04 02:45:46;;;;;;;;;;;;;;;19.74;59.89;99050.88;2118325;27;19961;-59
2021/11/04 02:46:46;;;;;;;;;;;;;;;19.74;59.79;99050.88;2119101;27;19915;-59
2021/11/04 02:47:47;;;;;;;;;;;;;;;19.74;59.93;99048.13;2116494;27;19916;-59
2021/11/04 02:48:47;;;;;;;;;;;;;;;19.73;59.87;99043.69;2119775;27;19904;-59
2021/11/04 02:49:48;;;;;;;;;;;;;;;19.74;59.83;99048.13;2119206;27;19923;-59
2021/11/04 02:50:52;;;;;;;;;;;;;;;19.74;59.77;99050.88;2116063;27;20006;-59
2021/11/04 02:51:53;;;;;;;;;;;;;;;19.72;59.84;99047.44;2119426;27;19915;-59
2021/11/04 02:52:55;;;;;;;;;;;;;;;19.73;59.83;99057.38;2118567;27;19964;-59
2021/11/04 02:53:55;;;;;;;;;;;;;;;19.72;59.80;99055.66;2118997;27;19915;-60
2021/11/04 02:54:59;;;;;;;;;;;;;;;19.70;59.88;99053.97;2118101;27;20006;-59
2021/11/04 02:55:59;;;;;;;;;;;;;;;19.70;59.98;99051.22;2119531;27;20010;-59
2021/11/04 02:57:00;;;;;;;;;;;;;;;19.70;59.96;99053.97;2115575;27;20374;-59
2021/11/04 02:58:04;;;;;;;;;;;;;;;19.70;59.85;99051.22;2111973;27;19946;-59
2021/11/04 02:59:05;;;;;;;;;;;;;;;19.70;59.88;99050.38;2109351;28;20049;-60
2021/11/04 03:00:05;;;;;;;;;;;;;;;19.68;59.94;99045.09;2098636;28;20402;-60
2021/11/04 03:01:06;;;;;;;;;;;;;;;19.69;60.01;99046.78;2109214;28;19989;-59
2021/11/04 03:02:07;;;;;;;;;;;;;;;19.69;59.87;99048.66;2118246;27;19912;-59
2021/11/04 03:03:07;;;;;;;;;;;;;;;19.69;59.88;99054.97;2116389;27;20212;-60
2021/11/04 03:04:08;;;;;;;;;;;;;;;19.69;60.00;99043.19;2101338;28;20137;-60
2021/11/04 03:05:08;;;;;;;;;;;;;;;19.69;59.98;99043.19;2107891;28;19915;-59
2021/11/04 03:06:09;;;;;;;;;;;;;;;19.68;60.03;99053.28;2118263;27;19911;-59
2021/11/04 03:07:09;;;;;;;;;;;;;;;19.67;59.83;99051.59;2118697;27;19915;-59
2021/11/04 03:08:10;;;;;;;;;;;;;;;19.68;60.01;99053.28;2115274;27;19922;-59
2021/11/04 03:09:10;;;;;;;;;;;;;;;19.66;59.98;99049.84;2111361;28;20368;-60
2021/11/04 03:10:11;;;;;;;;;;;;;;;19.68;60.01;99053.28;2111906;27;19903;-60
2021/11/04 03:11:11;;;;;;;;;;;;;;;19.67;59.95;99050.69;2110966;27;19915;-59
2021/11/04 03:12:11;;;;;;;;;;;;;;;19.67;59.99;99061.63;2119122;27;19915;-59
2021/11/04 03:13:12;;;;;;;;;;;;;;;19.66;60.14;99054.47;2104618;28;19920;-60
2021/11/04 03:14:14;;;;;;;;;;;;;;;19.65;60.11;99059.09;2103062;28;19920;-60
2021/11/04 03:15:16;;;;;;;;;;;;;;;19.65;60.03;99055.50;2116311;27;19915;-60
2021/11/04 03:16:23;;;;;;;;;;;;;;;19.64;60.11;99057.38;2113519;27;19970;-59
2021/11/04 03:17:23;;;;;;;;;;;;;;;19.66;60.12;99060.78;2114849;27;20020;-60
2021/11/04 03:18:24;;;;;;;;;;;;;;;19.65;60.03;99064.56;2110761;28;19925;-59
2021/11/04 03:19:25;;;;;;;;;;;;;;;19.64;59.91;99060.09;2113650;27;20325;-60
2021/11/04 03:20:26;;;;;;;;;;;;;;;19.64;60.02;99065.56;2116236;27;19912;-60
2021/11/04 03:21:27;;;;;;;;;;;;;;;19.63;59.93;99061.13;2118921;27;20212;-59
2021/11/04 03:22:27;;;;;;;;;;;;;;;19.64;60.01;99070.19;2111925;27;19911;-60
2021/11/04 03:23:28;;;;;;;;;;;;;;;19.64;60.00;99064.72;2111132;27;19916;-60
2021/11/04 03:24:29;;;;;;;;;;;;;;;19.63;60.02;99065.75;2118513;27;19942;-59
2021/11/04 03:25:29;;;;;;;;;;;;;;;19.63;60.18;99072.06;2118890;27;19963;-60
2021/11/04 03:26:31;;;;;;;;;;;;;;;19.62;59.98;99069.50;2108614;28;20381;-59
2021/11/04 03:27:32;;;;;;;;;;;;;;;19.62;60.10;99081.31;2110195;28;20274;-59
2021/11/04 03:28:33;;;;;;;;;;;;;;;19.61;60.18;99079.59;2118534;27;19922;-59
2021/11/04 03:29:36;;;;;;;;;;;;;;;19.60;60.14;99083.38;2118257;27;19915;-60
2021/11/04 03:30:38;;;;;;;;;;;;;;;19.60;59.99;99071.56;2117514;27;19911;-60
2021/11/04 03:31:39;;;;;;;;;;;;;;;19.60;60.24;99077.03;2118926;27;19965;-60
2021/11/04 03:32:40;;;;;;;;;;;;;;;19.58;60.29;99077.22;2118553;27;19915;-60
2021/11/04 03:33:41;;;;;;;;;;;;;;;19.58;60.12;99069.03;2117912;27;19907;-60
2021/11/04 03:34:42;;;;;;;;;;;;;;;19.59;60.07;99075.34;2109699;28;19912;-60
2021/11/04 03:35:43;;;;;;;;;;;;;;;19.60;60.24;99077.03;2105569;28;19962;-60
2021/11/04 03:36:48;;;;;;;;;;;;;;;19.59;60.15;99080.81;2114713;27;20009;-60
2021/11/04 03:37:50;;;;;;;;;;;;;;;19.58;60.21;99077.22;2118305;27;19911;-60
2021/11/04 03:38:51;;;;;;;;;;;;;;;19.57;60.30;99067.31;2106630;28;19989;-60
2021/11/04 03:39:52;;;;;;;;;;;;;;;19.57;60.16;99070.03;2104018;28;19916;-60
2021/11/04 03:40:55;;;;;;;;;;;;;;;19.57;60.22;99064.56;2118541;27;19942;-60
2021/11/04 03:41:56;;;;;;;;;;;;;;;19.57;60.10;99072.78;2117855;27;19912;-60
2021/11/04 03:42:56;;;;;;;;;;;;;;;19.57;60.16;99070.03;2119500;27;20361;-60
2021/11/04 03:43:57;;;;;;;;;;;;;;;19.57;60.22;99078.25;2115499;27;19956;-60
2021/11/04 03:44:59;;;;;;;;;;;;;;;19.57;60.21;99072.78;2105586;28;19916;-60
2021/11/04 03:46:00;;;;;;;;;;;;;;;19.56;60.18;99073.81;2109664;28;19916;-59
2021/11/04 03:47:02;;;;;;;;;;;;;;;19.56;60.15;99076.53;2116664;27;20011;-59
2021/11/04 03:48:03;;;;;;;;;;;;;;;19.56;60.16;99075.69;2110782;28;20002;-59
2021/11/04 03:49:04;;;;;;;;;;;;;;;19.56;60.11;99071.09;2114467;27;20377;-60
2021/11/04 03:50:13;;;;;;;;;;;;;;;19.56;60.15;99076.53;2118707;27;19923;-59
2021/11/04 03:51:14;;;;;;;;;;;;;;;19.56;60.23;99076.53;2100697;28;19916;-60
2021/11/04 03:52:15;;;;;;;;;;;;;;;19.56;60.21;99073.81;2104505;28;19915;-60
2021/11/04 03:53:16;;;;;;;;;;;;;;;19.55;60.19;99080.31;2119230;27;20008;-60
2021/11/04 03:54:17;;;;;;;;;;;;;;;19.55;60.20;99080.31;2117382;27;19982;-60
2021/11/04 03:55:18;;;;;;;;;;;;;;;19.55;60.24;99084.91;2117874;27;20294;-60
2021/11/04 03:56:20;;;;;;;;;;;;;;;19.56;60.20;99082.00;2118955;27;19988;-60
2021/11/04 03:57:22;;;;;;;;;;;;;;;19.54;60.09;99081.34;2111958;27;20302;-60
2021/11/04 03:58:25;;;;;;;;;;;;;;;19.54;60.05;99078.59;2112033;27;19944;-60
2021/11/04 03:59:26;;;;;;;;;;;;;;;19.56;60.13;99086.63;2101017;28;19916;-60
2021/11/04 04:00:26;;;;;;;;;;;;;;;19.53;60.21;99076.06;2101096;28;20304;-59
2021/11/04 04:01:30;;;;;;;;;;;;;;;19.54;60.21;99086.81;2111094;27;19912;-59
2021/11/04 04:02:30;;;;;;;;;;;;;;;19.53;60.27;99087.84;2107961;28;19912;-60
2021/11/04 04:03:30;;;;;;;;;;;;;;;19.54;60.33;99094.16;2107695;27;19916;-59
2021/11/04 04:04:31;;;;;;;;;;;;;;;19.53;60.19;99093.31;2109969;28;19916;-59
2021/11/04 04:05:32;;;;;;;;;;;;;;;19.53;60.26;99095.19;2117491;27;20171;-60
2021/11/04 04:06:34;;;;;;;;;;;;;;;19.52;60.24;99096.22;2109549;28;20265;-60
2021/11/04 04:07:35;;;;;;;;;;;;;;;19.52;60.27;99097.06;2093338;28;20061;-59
2021/11/04 04:08:36;;;;;;;;;;;;;;;19.51;60.26;99106.28;2104784;28;19919;-59
2021/11/04 04:09:37;;;;;;;;;;;;;;;19.51;60.21;99103.56;2117304;27;20011;-59
2021/11/04 04:10:37;;;;;;;;;;;;;;;19.51;60.16;99100.84;2110321;28;19912;-60
2021/11/04 04:11:38;;;;;;;;;;;;;;;19.52;60.25;99101.69;2112106;27;20017;-59
2021/11/04 04:12:38;;;;;;;;;;;;;;;19.51;60.13;99106.28;2112143;27;19912;-59
2021/11/04 04:13:38;;;;;;;;;;;;;;;19.51;60.10;99097.25;2111785;27;19923;-60
2021/11/04 04:14:38;;;;;;;;;;;;;;;19.50;60.15;99104.59;2112106;27;19957;-60
2021/11/04 04:15:39;;;;;;;;;;;;;;;19.51;60.13;99100.84;2118157;27;19951;-60
2021/11/04 04:16:40;;;;;;;;;;;;;;;19.50;60.16;99099.13;2116166;27;19941;-60
2021/11/04 04:17:40;;;;;;;;;;;;;;;19.49;60.17;99097.41;2111993;27;19985;-60
2021/11/04 04:18:41;;;;;;;;;;;;;;;19.49;60.24;99103.72;2114035;27;19924;-60
2021/11/04 04:19:41;;;;;;;;;;;;;;;19.49;60.22;99102.88;2105788;28;20272;-60
2021/11/04 04:20:42;;;;;;;;;;;;;;;19.49;60.34;99097.41;2095780;28;19920;-60
2021/11/04 04:21:42;;;;;;;;;;;;;;;19.49;60.34;99102.88;2104786;28;20018;-60
2021/11/04 04:22:42;;;;;;;;;;;;;;;19.48;60.25;99107.50;2117517;27;19951;-60
2021/11/04 04:23:43;;;;;;;;;;;;;;;19.48;60.36;99101.19;2118474;27;19960;-61
2021/11/04 04:24:43;;;;;;;;;;;;;;;19.48;60.34;99109.41;2115301;27;19911;-60
2021/11/04 04:25:44;;;;;;;;;;;;;;;19.48;60.29;99106.66;2117771;27;20230;-60
2021/11/04 04:26:44;;;;;;;;;;;;;;;19.48;60.30;99109.41;2114879;27;20369;-58
2021/11/04 04:27:44;;;;;;;;;;;;;;;19.47;60.37;99102.19;2118465;27;19919;-58
2021/11/04 04:28:45;;;;;;;;;;;;;;;19.47;60.30;99104.94;2117213;27;19920;-58
2021/11/04 04:29:51;;;;;;;;;;;;;;;19.47;60.19;99104.94;2118486;27;19907;-59
2021/11/04 04:30:51;;;;;;;;;;;;;;;19.47;60.37;99113.13;2121070;27;20281;-58
2021/11/04 04:31:52;;;;;;;;;;;;;;;19.47;60.32;99115.88;2118678;27;19962;-59
2021/11/04 04:32:52;;;;;;;;;;;;;;;19.46;60.34;99114.19;2113804;27;19911;-59
2021/11/04 04:33:52;;;;;;;;;;;;;;;19.45;60.33;99107.00;2112054;27;20409;-59
2021/11/04 04:34:53;;;;;;;;;;;;;;;19.45;60.28;99109.72;2118542;27;19911;-59
2021/11/04 04:35:55;;;;;;;;;;;;;;;19.45;60.26;99113.34;2106333;28;20012;-59
2021/11/04 04:36:55;;;;;;;;;;;;;;;19.46;60.50;99114.19;2101643;28;19927;-59
2021/11/04 04:37:55;;;;;;;;;;;;;;;19.45;60.27;99112.44;2109056;28;19954;-59
2021/11/04 04:38:56;;;;;;;;;;;;;;;19.44;60.38;99116.22;2106311;28;19937;-59
2021/11/04 04:39:56;;;;;;;;;;;;;;;19.45;60.42;99117.91;2118471;27;19964;-59
2021/11/04 04:40:56;;;;;;;;;;;;;;;19.44;60.42;99119.81;2114116;27;19970;-59
2021/11/04 04:41:57;;;;;;;;;;;;;;;19.44;60.38;99116.22;2114343;27;19919;-59
2021/11/04 04:42:57;;;;;;;;;;;;;;;19.43;60.40;99115.38;2117532;27;19937;-59
2021/11/04 04:43:57;;;;;;;;;;;;;;;19.44;60.42;99116.22;2101537;28;19922;-65
2021/11/04 04:44:58;;;;;;;;;;;;;;;19.44;60.41;99121.69;2098335;28;19915;-65
2021/11/04 04:45:58;;;;;;;;;;;;;;;19.43;60.45;99122.72;2103191;27;19915;-65
2021/11/04 04:46:59;;;;;;;;;;;;;;;19.43;60.29;99125.47;2105410;27;20208;-65
2021/11/04 04:47:59;;;;;;;;;;;;;;;19.42;60.34;99121.84;2103327;27;19907;-65
2021/11/04 04:48:59;;;;;;;;;;;;;;;19.42;60.25;99124.59;2105525;27;19907;-65
2021/11/04 04:50:00;;;;;;;;;;;;;;;19.41;60.39;99119.31;2101569;27;19958;-65
2021/11/04 04:51:00;;;;;;;;;;;;;;;19.41;60.35;99117.44;2106190;27;19927;-65
2021/11/04 04:52:00;;;;;;;;;;;;;;;19.42;60.43;99123.75;2105631;27;19922;-65
2021/11/04 04:53:01;;;;;;;;;;;;;;;19.41;60.39;99122.06;2108409;27;20006;-65
2021/11/04 04:54:02;;;;;;;;;;;;;;;19.41;60.42;99124.78;2096160;28;19912;-65
2021/11/04 04:55:03;;;;;;;;;;;;;;;19.41;60.49;99127.53;2097674;28;19915;-65
2021/11/04 04:56:03;;;;;;;;;;;;;;;19.41;60.36;99127.53;2107475;27;19912;-65
2021/11/04 04:57:04;;;;;;;;;;;;;;;19.40;60.33;99126.66;2106964;27;19915;-65
2021/11/04 04:58:06;;;;;;;;;;;;;;;19.39;60.43;99130.41;2104983;27;20265;-65
2021/11/04 04:59:06;;;;;;;;;;;;;;;19.40;60.48;99125.78;2105581;27;20326;-65
2021/11/04 05:00:11;;;;;;;;;;;;;;;19.39;60.44;99127.69;2104776;27;20253;-65
2021/11/04 05:01:12;;;;;;;;;;;;;;;19.40;60.49;99125.78;2100767;27;19941;-65
2021/11/04 05:02:12;;;;;;;;;;;;;;;19.39;60.36;99124.94;2095523;28;19945;-65
2021/11/04 05:03:12;;;;;;;;;;;;;;;19.38;60.33;99127.88;2095669;28;20192;-65
2021/11/04 05:04:12;;;;;;;;;;;;;;;19.39;60.43;99124.09;2101506;27;19968;-62
2021/11/04 05:05:13;;;;;;;;;;;;;;;19.38;60.49;99128.72;2102964;27;19915;-62
2021/11/04 05:06:14;;;;;;;;;;;;;;;19.38;60.44;99128.72;2100792;27;20375;-62
2021/11/04 05:07:14;;;;;;;;;;;;;;;19.38;60.34;99131.47;2105227;27;19964;-62
2021/11/04 05:08:15;;;;;;;;;;;;;;;19.38;60.37;99127.88;2104739;27;19919;-62
2021/11/04 05:09:15;;;;;;;;;;;;;;;19.38;60.41;99127.88;2098695;28;19951;-62
2021/11/04 05:10:15;;;;;;;;;;;;;;;19.38;60.39;99130.63;2096140;28;19916;-62
2021/11/04 05:11:17;;;;;;;;;;;;;;;19.38;60.47;99125.16;2097163;28;19908;-62
2021/11/04 05:12:17;;;;;;;;;;;;;;;19.37;60.42;99132.47;2088605;28;20018;-61
2021/11/04 05:13:17;;;;;;;;;;;;;;;19.37;60.43;99127.00;2094516;28;19912;-62
2021/11/04 05:14:18;;;;;;;;;;;;;;;19.36;60.48;99119.00;2107325;27;19966;-61
2021/11/04 05:15:18;;;;;;;;;;;;;;;19.37;60.42;99126.16;2104877;27;21317;-62
2021/11/04 05:16:19;;;;;;;;;;;;;;;19.37;60.48;99126.16;2099992;27;20282;-62
2021/11/04 05:17:19;;;;;;;;;;;;;;;19.36;60.40;99125.31;2101205;28;20294;-63
2021/11/04 05:18:19;;;;;;;;;;;;;;;19.36;60.41;99124.47;2105383;27;19914;-63
2021/11/04 05:19:20;;;;;;;;;;;;;;;19.36;60.50;99129.94;2107078;27;19911;-63
2021/11/04 05:20:20;;;;;;;;;;;;;;;19.35;60.47;99134.50;2097479;28;19916;-63